KWST/WST METAR and TAF weather

Enter ICAO airport designator
Station Type Date Time Source
KWST METAR 2019/10/15 18:53 UTC NOAA

KWST 151853Z AUTO VRB05KT 10SM CLR 18/03 A3011 RMK AO2 SLP194 T01830028


Station Type Date Time Source
KWST Decoded METAR 2019/10/15 18:53 UTC NOAA

WESTERLY STATE AIRPORT, RI, United States (KWST) 41-21N 071-48W 21M
Oct 15, 2019 - 02:53 PM EDT / 2019.10.15 1853 UTC
Wind: Variable at 6 MPH (5 KT):0
Visibility: 10 mile(s):0
Sky conditions: clear
Temperature: 64.9 F (18.3 C)
Dew Point: 37.0 F (2.8 C)
Relative Humidity: 35%
Pressure (altimeter): 30.11 in. Hg (1019 hPa)
ob: KWST 151853Z AUTO VRB05KT 10SM CLR 18/03 A3011 RMK AO2 SLP194 T01830028
cycle: 19

Station Type Date Time Source
KWST TAF UTC NOAA

Error!

Example: see airport list